Time;durP1;ratioP1;P1;durP2;ratioP2;P2;SDS_P1;SDS_P2;PMS_P1;PMS_P2;Temp;Humidity;BMP_temperature;BMP_pressure;BME280_temperature;BME280_humidity;BME280_pressure;Samples;Min_cycle;Max_cycle;Signal;HPM_P1;HPM_P2
2022/06/10 00:00:28;;;;;;;;;6.00;5.00;;;;;-143.57;100.00;65101.44;5099306;27;46144;-56
2022/06/10 00:02:53;;;;;;;;;4.50;4.50;;;;;-143.57;100.00;65101.44;5099531;27;45453;-56
2022/06/10 00:05:22;;;;;;;;;7.25;5.75;;;;;-143.57;100.00;65101.44;5099544;27;45413;-57
2022/06/10 00:07:50;;;;;;;;;5.00;5.00;;;;;-143.57;100.00;65101.44;5099555;27;45434;-53
2022/06/10 00:10:19;;;;;;;;;4.50;4.00;;;;;-143.57;100.00;65101.44;5099368;27;45373;-58
2022/06/10 00:12:45;;;;;;;;;6.50;4.00;;;;;-143.57;100.00;65101.44;5099189;27;45402;-54
2022/06/10 00:15:11;;;;;;;;;7.00;5.75;;;;;-143.57;100.00;65101.44;5099522;27;45354;-54
2022/06/10 00:17:36;;;;;;;;;4.75;4.75;;;;;-143.57;100.00;65101.44;5099175;27;45572;-54
2022/06/10 00:20:03;;;;;;;;;5.00;3.75;;;;;-143.57;100.00;65101.44;5099126;27;46307;-57
2022/06/10 00:22:29;;;;;;;;;6.50;4.50;;;;;-143.57;100.00;65101.44;5099039;27;45325;-53
2022/06/10 00:24:54;;;;;;;;;5.75;4.75;;;;;-143.57;100.00;65101.44;5099458;27;45311;-56
2022/06/10 00:27:20;;;;;;;;;5.25;4.00;;;;;-143.57;100.00;65101.44;5099485;27;45422;-57
2022/06/10 00:29:47;;;;;;;;;6.25;5.75;;;;;-143.57;100.00;65101.44;5098920;27;45239;-51
2022/06/10 00:32:13;;;;;;;;;6.25;4.00;;;;;-143.57;100.00;65101.44;5098887;27;45402;-58
2022/06/10 00:34:38;;;;;;;;;5.75;4.50;;;;;-143.57;100.00;65101.44;5099091;27;45397;-57
2022/06/10 00:37:06;;;;;;;;;7.25;3.50;;;;;-143.57;100.00;65101.44;5099112;27;45486;-53
2022/06/10 00:39:33;;;;;;;;;5.00;4.50;;;;;-143.57;100.00;65101.44;5098718;27;46394;-56
2022/06/10 00:41:59;;;;;;;;;4.00;4.00;;;;;-143.57;100.00;65101.44;5098905;27;45340;-54
2022/06/10 00:44:30;;;;;;;;;3.00;3.00;;;;;-143.57;100.00;65101.44;5098863;27;45428;-53
2022/06/10 00:46:57;;;;;;;;;5.00;4.25;;;;;-143.57;100.00;65101.44;5099155;27;45393;-54
2022/06/10 00:49:22;;;;;;;;;4.25;4.00;;;;;-143.57;100.00;65101.44;5098532;27;46221;-55
2022/06/10 00:51:56;;;;;;;;;12.25;5.25;;;;;-143.57;100.00;65101.44;5098575;27;45327;-52
2022/06/10 00:54:37;;;;;;;;;4.50;4.50;;;;;-143.57;100.00;65101.44;5098820;27;45492;-55
2022/06/10 00:57:19;;;;;;;;;5.50;5.00;;;;;-143.57;100.00;65101.44;5098831;27;45374;-55
2022/06/10 00:59:50;;;;;;;;;4.75;3.00;;;;;-143.57;100.00;65101.44;5098683;27;45340;-55
2022/06/10 01:02:22;;;;;;;;;3.00;3.00;;;;;-143.57;100.00;65101.44;5098403;27;45516;-53
2022/06/10 01:04:48;;;;;;;;;4.25;4.25;;;;;-143.57;100.00;65101.44;5098530;27;45388;-57
2022/06/10 01:07:18;;;;;;;;;2.25;1.75;;;;;-143.57;100.00;65101.44;5098703;27;45562;-57
2022/06/10 01:09:44;;;;;;;;;4.50;4.25;;;;;-143.57;100.00;65101.44;5098309;27;46136;-54
2022/06/10 01:12:44;;;;;;;;;6.00;5.25;;;;;-143.57;100.00;65101.44;5097898;27;45247;-54
2022/06/10 01:15:22;;;;;;;;;8.50;4.50;;;;;-143.57;100.00;65101.44;5098509;27;45464;-53
2022/06/10 01:18:12;;;;;;;;;4.00;3.00;;;;;-143.57;100.00;65101.44;5098247;27;45642;-53
2022/06/10 01:20:50;;;;;;;;;5.25;4.00;;;;;-143.57;100.00;65101.44;5098142;27;46381;-56
2022/06/10 01:23:34;;;;;;;;;5.00;5.00;;;;;-143.57;100.00;65101.44;5098185;27;45429;-51
2022/06/10 01:26:21;;;;;;;;;5.25;5.25;;;;;-143.57;100.00;65101.44;5098360;27;45267;-49
2022/06/10 01:29:16;;;;;;;;;6.50;3.50;;;;;-143.57;100.00;65101.44;5098525;27;45318;-52
2022/06/10 01:31:49;;;;;;;;;8.25;7.00;;;;;-143.57;100.00;65101.44;5097788;27;45307;-56
2022/06/10 01:34:52;;;;;;;;;5.50;4.25;;;;;-143.57;100.00;65101.44;5098141;27;45452;-57
2022/06/10 01:37:39;;;;;;;;;9.25;5.25;;;;;-143.57;100.00;65101.44;5097908;27;45456;-55
2022/06/10 01:40:27;;;;;;;;;4.75;3.50;;;;;-143.57;100.00;65101.44;5098222;27;45244;-57
2022/06/10 01:43:10;;;;;;;;;5.50;5.00;;;;;-143.57;100.00;65101.44;5089172;27;46175;-49
2022/06/10 01:45:51;;;;;;;;;5.25;5.25;;;;;-143.57;100.00;65101.44;5097925;27;45465;-51
2022/06/10 01:48:25;;;;;;;;;9.00;5.00;;;;;-143.57;100.00;65101.44;5097986;27;45364;-51
2022/06/10 01:51:07;;;;;;;;;7.25;4.50;;;;;-143.57;100.00;65101.44;5097992;27;45197;-55
2022/06/10 01:53:42;;;;;;;;;9.50;5.25;;;;;-143.57;100.00;65101.44;5097439;27;45385;-53
2022/06/10 01:56:29;;;;;;;;;5.00;5.00;;;;;-143.57;100.00;65101.44;5097741;27;45486;-51
2022/06/10 01:59:00;;;;;;;;;5.50;4.50;;;;;-143.57;100.00;65101.44;5097748;27;45409;-51
2022/06/10 02:01:34;;;;;;;;;8.00;5.00;;;;;-143.57;100.00;65101.44;5098036;27;45293;-52
2022/06/10 02:04:08;;;;;;;;;5.75;5.00;;;;;-143.57;100.00;65101.44;5097588;27;45318;-56
2022/06/10 02:06:54;;;;;;;;;5.00;5.00;;;;;-143.57;100.00;65101.44;5097384;27;45361;-57
2022/06/10 02:09:24;;;;;;;;;5.75;4.75;;;;;-143.57;100.00;65101.44;5097446;27;45358;-56
2022/06/10 02:11:57;;;;;;;;;4.67;4.33;;;;;-143.57;100.00;65101.44;5097652;27;45333;-54
2022/06/10 02:14:30;;;;;;;;;5.75;4.50;;;;;-143.57;100.00;65101.44;5079028;27;46123;-51
2022/06/10 02:16:57;;;;;;;;;5.00;5.00;;;;;-143.57;100.00;65101.44;5097168;27;45518;-54
2022/06/10 02:19:44;;;;;;;;;5.00;4.75;;;;;-143.57;100.00;65101.44;5097401;27;45208;-49
2022/06/10 02:22:26;;;;;;;;;5.75;5.75;;;;;-143.57;100.00;65101.44;5097658;27;45461;-50
2022/06/10 02:24:58;;;;;;;;;12.00;6.75;;;;;-143.57;100.00;65101.44;5099497;27;46322;-51
2022/06/10 02:27:29;;;;;;;;;7.00;5.00;;;;;-143.57;100.00;65101.44;5100839;27;45268;-49
2022/06/10 02:30:10;;;;;;;;;7.00;6.25;;;;;-143.57;100.00;65101.44;5101159;27;45433;-53
2022/06/10 02:32:37;;;;;;;;;6.75;4.75;;;;;-143.57;100.00;65101.44;5101007;27;45548;-55
2022/06/10 02:35:04;;;;;;;;;6.00;3.75;;;;;-143.57;100.00;65101.44;5101013;27;45385;-54
2022/06/10 02:37:42;;;;;;;;;7.00;6.00;;;;;-143.57;100.00;65101.44;5100547;27;45585;-51
2022/06/10 02:40:31;;;;;;;;;6.75;6.75;;;;;-143.57;100.00;65101.44;5101031;27;45342;-48
2022/06/10 02:43:18;;;;;;;;;5.75;5.75;;;;;-143.57;100.00;65101.44;5101047;27;45350;-55
2022/06/10 02:45:57;;;;;;;;;6.00;5.25;;;;;-143.57;100.00;65101.44;5100713;27;46196;-48
2022/06/10 02:48:39;;;;;;;;;6.00;6.00;;;;;-143.57;100.00;65101.44;5100637;27;45458;-49
2022/06/10 02:51:04;;;;;;;;;6.00;4.00;;;;;-143.57;100.00;65101.44;5100499;27;45412;-51
2022/06/10 02:53:30;;;;;;;;;6.00;4.00;;;;;-143.57;100.00;65101.44;5100984;27;45137;-51
2022/06/10 02:55:56;;;;;;;;;8.00;5.00;;;;;-143.57;100.00;65101.44;5100433;27;46274;-53
2022/06/10 03:01:30;;;;;;;;;6.67;6.00;;;;;-143.57;100.00;65101.44;5100699;27;45416;-51
2022/06/10 03:04:17;;;;;;;;;7.33;7.00;;;;;-143.57;100.00;65101.44;5100884;27;45357;-53
2022/06/10 03:06:50;;;;;;;;;6.67;6.67;;;;;-143.57;100.00;65101.44;5100257;27;46418;-56
2022/06/10 03:09:46;;;;;;;;;5.00;5.00;;;;;-143.57;100.00;65101.44;5100119;27;45424;-53
2022/06/10 03:12:20;;;;;;;;;6.00;4.00;;;;;-143.57;100.00;65101.44;5100496;27;45310;-57
2022/06/10 03:14:57;;;;;;;;;3.67;3.67;;;;;-143.57;100.00;65101.44;5100684;27;45429;-52
2022/06/10 03:17:35;;;;;;;;;5.50;4.00;;;;;-143.57;100.00;65101.44;5099539;27;46200;-54
2022/06/10 03:20:19;;;;;;;;;4.67;4.00;;;;;-143.57;100.00;65101.44;5099178;27;45311;-51
2022/06/10 03:22:48;;;;;;;;;4.00;4.00;;;;;-143.57;100.00;65101.44;5099169;27;45401;-50
2022/06/10 03:25:36;;;;;;;;;4.67;4.00;;;;;-143.57;100.00;65101.44;5099500;27;45287;-52
2022/06/10 03:28:14;;;;;;;;;7.33;5.67;;;;;-143.57;100.00;65101.44;5099020;27;46193;-52
2022/06/10 03:30:51;;;;;;;;;9.00;5.00;;;;;-143.57;100.00;65101.44;5098549;27;45339;-51
2022/06/10 03:33:28;;;;;;;;;5.00;4.67;;;;;-143.57;100.00;65101.44;5099156;27;45287;-49
2022/06/10 03:36:00;;;;;;;;;5.00;5.00;;;;;-143.57;100.00;65101.44;5098700;27;45416;-53
2022/06/10 03:38:26;;;;;;;;;5.67;5.00;;;;;-143.57;100.00;65101.44;5098676;27;47511;-50
2022/06/10 03:40:56;;;;;;;;;8.00;4.00;;;;;-143.57;100.00;65101.44;5098721;27;45320;-55
2022/06/10 03:43:24;;;;;;;;;8.00;5.00;;;;;-143.57;100.00;65101.44;5098733;27;45333;-54
2022/06/10 03:45:59;;;;;;;;;8.00;7.67;;;;;-143.57;100.00;65101.44;5098817;27;45547;-51
2022/06/10 03:48:27;;;;;;;;;4.00;3.00;;;;;-143.57;100.00;65101.44;5098445;27;45244;-56
2022/06/10 03:50:55;;;;;;;;;7.00;5.00;;;;;-143.57;100.00;65101.44;5097059;27;45434;-52
2022/06/10 03:53:23;;;;;;;;;7.33;4.67;;;;;-143.57;100.00;65101.44;5098753;27;45465;-51
2022/06/10 03:55:48;;;;;;;;;7.00;4.00;;;;;-143.57;100.00;65101.44;5098876;27;45299;-49
2022/06/10 03:58:14;;;;;;;;;10.67;5.00;;;;;-143.57;100.00;65101.44;5098143;27;46126;-57
2022/06/10 04:00:40;;;;;;;;;6.67;4.67;;;;;-143.57;100.00;65101.44;5098670;27;45275;-53
2022/06/10 04:03:06;;;;;;;;;6.33;5.00;;;;;-143.57;100.00;65101.44;5098632;27;45337;-54
2022/06/10 04:05:32;;;;;;;;;7.67;4.00;;;;;-143.57;100.00;65101.44;5098652;27;45371;-53
2022/06/10 04:07:58;;;;;;;;;8.00;5.67;;;;;-143.57;100.00;65101.44;5098218;27;45448;-54
2022/06/10 04:10:26;;;;;;;;;6.33;4.00;;;;;-143.57;100.00;65101.44;5098073;27;45318;-49
2022/06/10 04:12:52;;;;;;;;;3.00;3.00;;;;;-143.57;100.00;65101.44;5098463;27;45373;-53
2022/06/10 04:15:18;;;;;;;;;5.00;5.00;;;;;-143.57;100.00;65101.44;5097732;27;45552;-51
2022/06/10 04:17:46;;;;;;;;;10.67;6.00;;;;;-143.57;100.00;65101.44;5039463;27;1136574;-49
2022/06/10 04:20:15;;;;;;;;;6.00;4.67;;;;;-143.57;100.00;65101.44;5099061;27;45365;-55
2022/06/10 04:22:41;;;;;;;;;7.33;4.00;;;;;-143.57;100.00;65101.44;5099478;27;45314;-54
2022/06/10 04:25:06;;;;;;;;;5.00;4.67;;;;;-143.57;100.00;65101.44;5099455;27;45426;-52
2022/06/10 04:27:32;;;;;;;;;5.67;5.00;;;;;-143.57;100.00;65101.44;5099062;27;45950;-57
2022/06/10 04:29:58;;;;;;;;;5.33;5.00;;;;;-143.57;100.00;65101.44;5099313;27;45277;-52
2022/06/10 04:32:23;;;;;;;;;4.00;4.00;;;;;-143.57;100.00;65101.44;5099085;27;45345;-54
2022/06/10 04:34:49;;;;;;;;;4.00;4.00;;;;;-143.57;100.00;65101.44;5099244;27;45295;-52
2022/06/10 04:37:14;;;;;;;;;5.67;4.67;;;;;-143.57;100.00;65101.44;5099000;27;45954;-54
2022/06/10 04:39:39;;;;;;;;;6.33;5.00;;;;;-143.57;100.00;65101.44;5080635;27;45455;-54
2022/06/10 04:42:05;;;;;;;;;7.67;5.00;;;;;-143.57;100.00;65101.44;5099111;27;45246;-55
2022/06/10 04:44:31;;;;;;;;;3.67;3.67;;;;;-143.57;100.00;65101.44;5099365;27;45264;-53
2022/06/10 04:46:56;;;;;;;;;5.00;5.00;;;;;-143.57;100.00;65101.44;5097956;27;46055;-56
2022/06/10 04:49:22;;;;;;;;;4.33;4.00;;;;;-143.57;100.00;65101.44;5098791;27;45331;-55
2022/06/10 04:51:47;;;;;;;;;5.00;4.75;;;;;-143.57;100.00;65101.44;5098735;27;45374;-57
2022/06/10 04:54:13;;;;;;;;;6.67;6.00;;;;;-143.57;100.00;65101.44;5098847;27;45410;-55
2022/06/10 04:56:38;;;;;;;;;5.67;4.00;;;;;-143.57;100.00;65101.44;5098502;27;46366;-54
2022/06/10 04:59:04;;;;;;;;;5.33;3.33;;;;;-143.57;100.00;65101.44;5098548;27;45321;-55
2022/06/10 05:01:30;;;;;;;;;5.00;4.33;;;;;-143.57;100.00;65101.44;5098848;27;45334;-59
2022/06/10 05:03:55;;;;;;;;;8.00;5.00;;;;;-143.57;100.00;65101.44;5098813;27;45450;-54
2022/06/10 05:06:21;;;;;;;;;5.67;4.00;;;;;-143.57;100.00;65101.44;5098564;27;45425;-53
2022/06/10 05:08:47;;;;;;;;;6.33;6.00;;;;;-143.57;100.00;65101.44;5098763;27;45430;-58
2022/06/10 05:11:12;;;;;;;;;4.67;4.00;;;;;-143.57;100.00;65101.44;5098314;27;45939;-58
2022/06/10 05:13:37;;;;;;;;;8.33;6.00;;;;;-143.57;100.00;65101.44;5098810;27;45356;-57
2022/06/10 05:16:04;;;;;;;;;7.67;7.00;;;;;-143.57;100.00;65101.44;5098263;27;46883;-57
2022/06/10 05:18:30;;;;;;;;;5.33;5.33;;;;;-143.57;100.00;65101.44;5079607;27;46241;-52
2022/06/10 05:20:55;;;;;;;;;7.00;5.33;;;;;-143.57;100.00;65101.44;5098507;27;45461;-56
2022/06/10 05:23:23;;;;;;;;;5.00;5.00;;;;;-143.57;100.00;65101.44;5098696;27;45449;-55
2022/06/10 05:25:49;;;;;;;;;6.00;5.67;;;;;-143.57;100.00;65101.44;5097987;27;46079;-55
2022/06/10 05:28:16;;;;;;;;;10.67;6.67;;;;;-143.57;100.00;65101.44;5097131;27;45350;-60
2022/06/10 05:30:42;;;;;;;;;5.67;4.00;;;;;-143.57;100.00;65101.44;5098140;27;45406;-53
2022/06/10 05:33:09;;;;;;;;;10.00;6.67;;;;;-143.57;100.00;65101.44;5098443;27;45311;-51
2022/06/10 05:35:36;;;;;;;;;6.75;5.00;;;;;-143.57;100.00;65101.44;5097759;27;46446;-54
2022/06/10 05:38:03;;;;;;;;;5.00;4.00;;;;;-143.57;100.00;65101.44;5098238;27;45318;-53
2022/06/10 05:40:30;;;;;;;;;5.00;5.00;;;;;-143.57;100.00;65101.44;5097866;27;45421;-52
2022/06/10 05:42:55;;;;;;;;;4.33;4.33;;;;;-143.57;100.00;65101.44;5098219;27;45306;-57
2022/06/10 05:45:21;;;;;;;;;6.33;4.00;;;;;-143.57;100.00;65101.44;5097842;27;45554;-56
2022/06/10 05:47:51;;;;;;;;;5.67;4.00;;;;;-143.57;100.00;65101.44;5097845;27;45444;-52
2022/06/10 05:50:19;;;;;;;;;5.50;3.50;;;;;-143.57;100.00;65101.44;5097951;27;45410;-53
2022/06/10 05:52:44;;;;;;;;;7.33;5.67;;;;;-143.57;100.00;65101.44;5098064;27;45473;-49
2022/06/10 05:55:11;;;;;;;;;5.00;4.50;;;;;-143.57;100.00;65101.44;5097517;27;46606;-51
2022/06/10 05:57:38;;;;;;;;;4.00;4.00;;;;;-143.57;100.00;65101.44;5097790;27;45374;-55
2022/06/10 06:00:08;;;;;;;;;6.00;4.00;;;;;-143.57;100.00;65101.44;5097612;27;45184;-53
2022/06/10 06:02:33;;;;;;;;;4.00;4.00;;;;;-143.57;100.00;65101.44;5097568;27;45389;-51
2022/06/10 06:04:58;;;;;;;;;5.00;4.00;;;;;-143.57;100.00;65101.44;5097523;27;46007;-54
2022/06/10 06:07:27;;;;;;;;;6.25;4.00;;;;;-143.57;100.00;65101.44;5097444;27;45399;-54
2022/06/10 06:09:53;;;;;;;;;5.75;4.00;;;;;-143.57;100.00;65101.44;5097441;27;45347;-54
2022/06/10 06:12:20;;;;;;;;;6.33;5.00;;;;;-143.57;100.00;65101.44;5097790;27;45175;-52
2022/06/10 06:14:45;;;;;;;;;4.25;4.00;;;;;-143.57;100.00;65101.44;5097696;27;45415;-56
2022/06/10 06:17:14;;;;;;;;;4.25;2.50;;;;;-143.57;100.00;65101.44;5097548;27;45360;-48
2022/06/10 06:19:39;;;;;;;;;5.00;3.33;;;;;-143.57;100.00;65101.44;5097508;27;45335;-52
2022/06/10 06:22:06;;;;;;;;;4.50;3.75;;;;;-143.57;100.00;65101.44;5097672;27;45319;-52
2022/06/10 06:24:31;;;;;;;;;6.50;5.00;;;;;-143.57;100.00;65101.44;5097047;27;47040;-54
2022/06/10 06:26:56;;;;;;;;;6.00;5.00;;;;;-143.57;100.00;65101.44;5097246;27;45442;-57
2022/06/10 06:29:23;;;;;;;;;5.25;1.25;;;;;-143.57;100.00;65101.44;5097625;27;45326;-55
2022/06/10 06:31:53;;;;;;;;;6.50;5.00;;;;;-143.57;100.00;65101.44;5097455;27;45569;-57
2022/06/10 06:34:20;;;;;;;;;6.25;4.00;;;;;-143.57;100.00;65101.44;5097307;27;45416;-52
2022/06/10 06:36:48;;;;;;;;;3.75;3.75;;;;;-143.57;100.00;65101.44;5097294;27;45374;-50
2022/06/10 06:39:17;;;;;;;;;5.50;4.00;;;;;-143.57;100.00;65101.44;5097326;27;45497;-55
2022/06/10 06:41:43;;;;;;;;;4.00;3.75;;;;;-143.57;100.00;65101.44;5096121;27;45461;-54
2022/06/10 06:44:09;;;;;;;;;3.00;3.00;;;;;-143.57;100.00;65101.44;5098992;27;46384;-53
2022/06/10 06:46:37;;;;;;;;;7.00;4.00;;;;;-143.57;100.00;65101.44;5101334;27;45387;-49
2022/06/10 06:49:05;;;;;;;;;8.00;4.75;;;;;-143.57;100.00;65101.44;5096070;27;45388;-48
2022/06/10 06:51:31;;;;;;;;;6.25;4.25;;;;;-143.57;100.00;65101.44;5094777;27;45403;-51
2022/06/10 06:53:57;;;;;;;;;3.25;2.75;;;;;-143.57;100.00;65101.44;5094366;27;46187;-55
2022/06/10 06:56:23;;;;;;;;;4.20;3.00;;;;;-143.57;100.00;65101.44;5094354;27;45553;-58
2022/06/10 06:58:48;;;;;;;;;5.25;2.25;;;;;-143.57;100.00;65101.44;5094553;27;45626;-57
2022/06/10 07:01:14;;;;;;;;;4.00;2.50;;;;;-143.57;100.00;65101.44;5094534;27;45386;-56
2022/06/10 07:03:39;;;;;;;;;3.50;2.00;;;;;-143.57;100.00;65101.44;5094413;27;45957;-53
2022/06/10 07:06:05;;;;;;;;;3.25;2.00;;;;;-143.57;100.00;65101.44;5094332;27;45993;-50
2022/06/10 07:08:31;;;;;;;;;3.40;2.80;;;;;-143.57;100.00;65101.44;5094337;27;45452;-53
2022/06/10 07:11:04;;;;;;;;;3.50;1.75;;;;;-143.57;100.00;65101.44;5096781;27;45449;-49
2022/06/10 07:13:30;;;;;;;;;4.20;1.40;;;;;-143.57;100.00;65101.44;5097654;27;46175;-51
2022/06/10 07:15:57;;;;;;;;;2.00;2.00;;;;;-143.57;100.00;65101.44;5097273;27;45564;-55
2022/06/10 07:18:23;;;;;;;;;2.60;2.60;;;;;-143.57;100.00;65101.44;5096706;27;45632;-52
2022/06/10 07:20:49;;;;;;;;;3.00;3.00;;;;;-143.57;100.00;65101.44;5097720;27;45508;-52
2022/06/10 07:23:16;;;;;;;;;3.00;2.00;;;;;-143.57;100.00;65101.44;5097629;27;47117;-51
2022/06/10 07:25:42;;;;;;;;;1.00;1.00;;;;;-143.57;100.00;65101.44;5097045;27;45441;-57
2022/06/10 07:28:08;;;;;;;;;2.00;1.60;;;;;-143.57;100.00;65101.44;5097490;27;45448;-50
2022/06/10 07:30:35;;;;;;;;;1.60;1.60;;;;;-143.57;100.00;65101.44;5097822;27;45448;-54
2022/06/10 07:33:01;;;;;;;;;3.40;1.20;;;;;-143.57;100.00;65101.44;5096995;27;46346;-51
2022/06/10 07:35:28;;;;;;;;;2.00;2.00;;;;;-143.57;100.00;65101.44;5097459;27;45489;-52
2022/06/10 07:37:54;;;;;;;;;1.20;1.20;;;;;-143.57;100.00;65101.44;5097502;27;45460;-55
2022/06/10 07:43:11;;;;;;;;;1.20;0.00;;;;;-143.57;100.00;65101.44;5096965;27;45774;-51
2022/06/10 07:45:37;;;;;;;;;2.00;0.00;;;;;-143.57;100.00;65101.44;5097174;27;45516;-54
2022/06/10 07:48:03;;;;;;;;;2.00;0.25;;;;;-143.57;100.00;65101.44;5096420;27;45493;-54
2022/06/10 07:50:29;;;;;;;;;1.00;1.00;;;;;-143.57;100.00;65101.44;5078798;27;45376;-52
2022/06/10 07:52:54;;;;;;;;;1.00;0.00;;;;;-143.57;100.00;65101.44;5095175;27;46826;-48
2022/06/10 07:55:20;;;;;;;;;3.00;0.25;;;;;-143.57;100.00;65101.44;5096660;27;45465;-57
2022/06/10 07:57:46;;;;;;;;;3.25;1.00;;;;;-143.57;100.00;65101.44;5096885;27;45587;-54
2022/06/10 08:00:13;;;;;;;;;0.60;0.60;;;;;-143.57;100.00;65101.44;5096822;27;45387;-52
2022/06/10 08:02:40;;;;;;;;;1.60;0.00;;;;;-143.57;100.00;65101.44;5096691;27;45517;-51
2022/06/10 08:05:07;;;;;;;;;3.00;1.80;;;;;-143.57;100.00;65101.44;5096478;27;45958;-50
2022/06/10 08:07:33;;;;;;;;;5.00;1.40;;;;;-143.57;100.00;65101.44;5096375;27;45538;-54
2022/06/10 08:09:58;;;;;;;;;1.00;1.00;;;;;-143.57;100.00;65101.44;5096803;27;45495;-52
2022/06/10 08:12:24;;;;;;;;;1.00;0.00;;;;;-143.57;100.00;65101.44;5095762;27;46271;-51
2022/06/10 08:14:49;;;;;;;;;2.50;2.50;;;;;-143.57;100.00;65101.44;5096847;27;45541;-58
2022/06/10 08:17:15;;;;;;;;;3.00;0.00;;;;;-143.57;100.00;65101.44;5095436;27;45689;-58
2022/06/10 08:19:40;;;;;;;;;0.50;0.50;;;;;-143.57;100.00;65101.44;5096536;27;45643;-55
2022/06/10 08:24:51;;;;;;;;;2.20;0.40;;;;;-143.57;100.00;65101.44;5096472;27;45366;-57
2022/06/10 08:27:16;;;;;;;;;0.00;0.00;;;;;-143.57;100.00;65101.44;5096578;27;45463;-54
2022/06/10 08:29:42;;;;;;;;;1.25;1.25;;;;;-143.57;100.00;65101.44;5096769;27;45454;-57
2022/06/10 08:32:08;;;;;;;;;1.00;1.00;;;;;-143.57;100.00;65101.44;5095879;27;46253;-56
2022/06/10 08:34:33;;;;;;;;;2.75;1.25;;;;;-143.57;100.00;65101.44;5095888;27;45569;-53
2022/06/10 08:37:01;;;;;;;;;1.00;0.00;;;;;-143.57;100.00;65101.44;5096202;27;45868;-52
2022/06/10 08:39:27;;;;;;;;;1.60;0.40;;;;;-143.57;100.00;65101.44;5096261;27;45418;-60
2022/06/10 08:42:10;;;;;;;;;1.00;1.00;;;;;-143.57;100.00;65101.44;5096006;27;46404;-57
2022/06/10 08:44:55;;;;;;;;;1.40;1.40;;;;;-143.57;100.00;65101.44;5096040;27;45572;-54
2022/06/10 08:47:30;;;;;;;;;1.00;1.00;;;;;-143.57;100.00;65101.44;5096060;27;45541;-62
2022/06/10 08:50:08;;;;;;;;;2.20;1.60;;;;;-143.57;100.00;65101.44;5096056;27;45344;-59
2022/06/10 08:52:59;;;;;;;;;0.20;0.20;;;;;-143.57;100.00;65101.44;5095096;27;47076;-60
2022/06/10 08:55:55;;;;;;;;;5.20;2.00;;;;;-143.57;100.00;65101.44;5095744;27;45346;-56
2022/06/10 08:58:31;;;;;;;;;10.40;5.40;;;;;-143.57;100.00;65101.44;5094108;27;45496;-57
2022/06/10 09:01:04;;;;;;;;;0.60;0.60;;;;;-143.57;100.00;65101.44;5096036;27;45505;-57
2022/06/10 09:03:33;;;;;;;;;0.40;0.40;;;;;-143.57;100.00;65101.44;5095583;27;46179;-59
2022/06/10 09:06:05;;;;;;;;;0.20;0.20;;;;;-143.57;100.00;65101.44;5095700;27;45492;-59
2022/06/10 09:08:39;;;;;;;;;1.00;1.00;;;;;-143.57;100.00;65101.44;5095784;27;45449;-55
2022/06/10 09:11:56;;;;;;;;;0.00;0.00;;;;;-143.57;100.00;65101.44;5095542;27;45698;-54
2022/06/10 09:14:26;;;;;;;;;0.00;0.00;;;;;-143.57;100.00;65101.44;5032211;28;46273;-60
2022/06/10 09:17:03;;;;;;;;;2.20;1.00;;;;;-143.57;100.00;65101.44;5031993;28;46425;-53
2022/06/10 09:19:51;;;;;;;;;0.60;0.60;;;;;-143.57;100.00;65101.44;5032046;28;45820;-58
2022/06/10 09:22:54;;;;;;;;;1.00;0.00;;;;;-143.57;100.00;65101.44;5032292;28;45512;-53
2022/06/10 09:25:32;;;;;;;;;1.00;1.00;;;;;-143.57;100.00;65101.44;5029971;28;46489;-52
2022/06/10 09:27:59;;;;;;;;;2.00;0.40;;;;;-143.57;100.00;65101.44;5031540;28;45520;-55
2022/06/10 09:30:34;;;;;;;;;0.00;0.00;;;;;-143.57;100.00;65101.44;5032384;28;45493;-55
2022/06/10 09:33:09;;;;;;;;;0.00;0.00;;;;;-143.57;100.00;65101.44;5031753;28;45479;-52
2022/06/10 09:35:39;;;;;;;;;1.60;1.00;;;;;-143.57;100.00;65101.44;5031878;28;46084;-52
2022/06/10 09:38:35;;;;;;;;;1.00;1.00;;;;;-143.57;100.00;65101.44;5031568;28;45405;-51
2022/06/10 09:41:06;;;;;;;;;1.00;1.00;;;;;-143.57;100.00;65101.44;4952920;28;45595;-57
2022/06/10 09:43:44;;;;;;;;;0.40;0.40;;;;;-143.57;100.00;65101.44;4952979;28;45555;-52
2022/06/10 09:46:39;;;;;;;;;0.00;0.00;;;;;-143.57;100.00;65101.44;4953443;28;47206;-55
2022/06/10 09:49:35;;;;;;;;;0.00;0.00;;;;;-143.57;100.00;65101.44;4951444;28;45607;-55
2022/06/10 09:52:11;;;;;;;;;0.00;0.00;;;;;-143.57;100.00;65101.44;5010510;28;46007;-56
2022/06/10 09:54:49;;;;;;;;;0.60;0.00;;;;;-143.57;100.00;65101.44;5012275;28;45613;-52
2022/06/10 09:57:23;;;;;;;;;1.20;1.20;;;;;-143.57;100.00;65101.44;5011299;28;46206;-52
2022/06/10 09:59:59;;;;;;;;;0.80;0.80;;;;;-143.57;100.00;65101.44;5011680;28;45517;-51
2022/06/10 10:02:27;;;;;;;;;1.80;1.40;;;;;-143.57;100.00;65101.44;5011934;28;45540;-53
2022/06/10 10:05:10;;;;;;;;;2.60;1.00;;;;;-143.57;100.00;65101.44;5012101;28;45473;-56
2022/06/10 10:07:43;;;;;;;;;1.40;1.00;;;;;-143.57;100.00;65101.44;5011114;28;45653;-56
2022/06/10 10:10:21;;;;;;;;;1.20;1.20;;;;;-143.57;100.00;65101.44;5028267;28;45442;-51
2022/06/10 10:13:06;;;;;;;;;0.00;0.00;;;;;-143.57;100.00;65101.44;5009680;28;46445;-52
2022/06/10 10:15:31;;;;;;;;;0.00;0.00;;;;;-143.57;100.00;65101.44;5011861;28;45828;-50
2022/06/10 10:18:08;;;;;;;;;0.75;0.50;;;;;-143.57;100.00;65101.44;5049389;27;45961;-53
2022/06/10 10:21:02;;;;;;;;;1.40;1.00;;;;;-143.57;100.00;65101.44;5094275;27;45544;-55
2022/06/10 10:23:35;;;;;;;;;0.00;0.00;;;;;-143.57;100.00;65101.44;5094430;27;45505;-58
2022/06/10 10:26:05;;;;;;;;;0.00;0.00;;;;;-143.57;100.00;65101.44;5094921;27;45604;-52
2022/06/10 10:28:34;;;;;;;;;1.00;1.00;;;;;-143.57;100.00;65101.44;5094387;27;45868;-54
2022/06/10 10:31:10;;;;;;;;;1.00;1.00;;;;;-143.57;100.00;65101.44;5094552;27;45461;-53
2022/06/10 10:33:35;;;;;;;;;1.00;1.00;;;;;-143.57;100.00;65101.44;5094389;27;45652;-54
2022/06/10 10:36:10;;;;;;;;;0.00;0.00;;;;;-143.57;100.00;65101.44;5094612;27;45642;-55
2022/06/10 10:38:43;;;;;;;;;0.00;0.00;;;;;-143.57;100.00;65101.44;5096446;27;45425;-56
2022/06/10 10:41:34;;;;;;;;;2.00;2.00;;;;;-143.57;100.00;65101.44;5097086;27;45423;-53
2022/06/10 10:44:05;;;;;;;;;0.60;0.20;;;;;-143.57;100.00;65101.44;5097173;27;45377;-53
2022/06/10 10:46:56;;;;;;;;;0.00;0.00;;;;;-143.57;100.00;65101.44;5099519;27;45250;-54
2022/06/10 10:49:30;;;;;;;;;0.00;0.00;;;;;-143.57;100.00;65101.44;5100531;27;46111;-55
2022/06/10 10:51:56;;;;;;;;;0.20;0.20;;;;;-143.57;100.00;65101.44;5100504;27;45900;-52
2022/06/10 10:54:34;;;;;;;;;0.60;0.40;;;;;-143.57;100.00;65101.44;5100721;27;45412;-58
2022/06/10 10:57:01;;;;;;;;;2.00;1.00;;;;;-143.57;100.00;65101.44;5098962;27;45531;-57
2022/06/10 10:59:32;;;;;;;;;0.20;0.20;;;;;-143.57;100.00;65101.44;5115924;27;47570;-55
2022/06/10 11:01:58;;;;;;;;;0.80;0.80;;;;;-143.57;100.00;65101.44;5100278;27;45481;-55
2022/06/10 11:04:36;;;;;;;;;0.25;0.25;;;;;-143.57;100.00;65101.44;5098768;27;45401;-54
2022/06/10 11:07:04;;;;;;;;;1.00;1.00;;;;;-143.57;100.00;65101.44;5098595;27;45642;-54
2022/06/10 11:09:30;;;;;;;;;1.40;1.00;;;;;-143.57;100.00;65101.44;5080851;27;47173;-51
2022/06/10 11:11:57;;;;;;;;;2.80;1.40;;;;;-143.57;100.00;65101.44;5079954;27;45524;-55
2022/06/10 11:14:33;;;;;;;;;4.00;3.40;;;;;-143.57;100.00;65101.44;5098632;27;45562;-51
2022/06/10 11:17:13;;;;;;;;;2.80;2.80;;;;;-143.57;100.00;65101.44;5099342;27;45409;-57
2022/06/10 11:19:48;;;;;;;;;2.00;2.00;;;;;-143.57;100.00;65101.44;5096955;27;46266;-52
2022/06/10 11:22:21;;;;;;;;;1.00;1.00;;;;;-143.57;100.00;65101.44;5097409;27;45425;-51
2022/06/10 11:24:50;;;;;;;;;2.40;1.80;;;;;-143.57;100.00;65101.44;5097525;27;45234;-51
2022/06/10 11:27:28;;;;;;;;;3.40;2.00;;;;;-143.57;100.00;65101.44;5097541;27;45332;-52
2022/06/10 11:29:58;;;;;;;;;2.00;1.00;;;;;-143.57;100.00;65101.44;5097295;27;46018;-54
2022/06/10 11:32:28;;;;;;;;;4.00;3.00;;;;;-143.57;100.00;65101.44;5096783;27;45422;-49
2022/06/10 11:35:03;;;;;;;;;9.40;4.40;;;;;-143.57;100.00;65101.44;5097431;27;45500;-55
2022/06/10 11:37:39;;;;;;;;;2.60;2.60;;;;;-143.57;100.00;65101.44;5097157;27;45896;-56